This is the latest recevied weather packets stored in our database for station/object BV1EV-2. If no packets are shown the sender has not sent any weather packets the latest 10 day(s).
| Time | Temp. | Humidity | Pressure | Rain* | Wind** | Luminosity | Snow |
|---|---|---|---|---|---|---|---|
| 1777952267 | 25.56° C | 54% | 1013.5 hPa | - | - | - | - |
| 1777951067 | 26.11° C | 45% | 1013.5 hPa | - | - | - | - |
| 1777949867 | 26.11° C | 36% | 1013.6 hPa | - | - | - | - |
| 1777948667 | 23.89° C | 44% | 1014 hPa | - | - | - | - |
| 1777947467 | 25° C | 38% | 1013.9 hPa | - | - | - | - |
| 1777946267 | 25.56° C | 33% | 1014.1 hPa | - | - | - | - |
| 1777945068 | 26.11° C | 33% | 1014.4 hPa | - | - | - | - |
| 1777943868 | 26.67° C | 34% | 1014.3 hPa | - | - | - | - |
| 1777942667 | 27.22° C | 36% | 1014 hPa | - | - | - | - |
| 1777941467 | 26.11° C | 50% | 1014.1 hPa | - | - | - | - |
| 1777940266 | 25.56° C | 49% | 1014.1 hPa | - | - | - | - |
| 1777939067 | 25.56° C | 48% | 1013.7 hPa | - | - | - | - |
| 1777937868 | 25° C | 48% | 1013.6 hPa | - | - | - | - |
| 1777936668 | 25° C | 46% | 1013.8 hPa | - | - | - | - |
| 1777935467 | 24.44° C | 46% | 1013.6 hPa | - | - | - | - |
| 1777934268 | 24.44° C | 44% | 1013.4 hPa | - | - | - | - |
| 1777933068 | 23.89° C | 42% | 1013.2 hPa | - | - | - | - |
| 1777931867 | 25° C | 35% | 1013 hPa | - | - | - | - |
| 1777930667 | 25° C | 33% | 1012.9 hPa | - | - | - | - |
| 1777929468 | 25° C | 33% | 1012.6 hPa | - | - | - | - |
| 1777928268 | 25° C | 33% | 1012.4 hPa | - | - | - | - |
| 1777927068 | 25.56° C | 34% | 1012.4 hPa | - | - | - | - |
| 1777925868 | 25.56° C | 33% | 1012.5 hPa | - | - | - | - |
| 1777924667 | 25.56° C | 34% | 1012.4 hPa | - | - | - | - |
| 1777923467 | 26.11° C | 34% | 1012.4 hPa | - | - | - | - |
* Rain since midnight (hover to see other rain measurements)
** Current wind speed in m/s (hover to see current wind gust speed)